sensor_id;sensor_type;location;lat;lon;timestamp;noise_LAeq;noise_LA_min;noise_LA_max;noise_LA01;noise_LA95
76338;Laerm;20358;50.272;19.026;2023-03-03T00:00:32;44.08;35.43;60.39;;
76338;Laerm;20358;50.272;19.026;2023-03-03T00:03:40;46.86;35.16;65.32;;
76338;Laerm;20358;50.272;19.026;2023-03-03T00:06:46;46.65;35.52;68.10;;
76338;Laerm;20358;50.272;19.026;2023-03-03T00:09:52;41.20;35.66;55.99;;
76338;Laerm;20358;50.272;19.026;2023-03-03T00:12:58;42.29;35.28;65.05;;
76338;Laerm;20358;50.272;19.026;2023-03-03T00:16:19;42.27;35.95;53.97;;
76338;Laerm;20358;50.272;19.026;2023-03-03T00:19:38;44.34;35.38;60.50;;
76338;Laerm;20358;50.272;19.026;2023-03-03T00:22:48;42.59;35.71;60.59;;
76338;Laerm;20358;50.272;19.026;2023-03-03T00:25:56;44.48;36.08;66.04;;
76338;Laerm;20358;50.272;19.026;2023-03-03T00:29:32;41.59;35.34;58.00;;
76338;Laerm;20358;50.272;19.026;2023-03-03T00:32:44;46.37;35.86;71.36;;
76338;Laerm;20358;50.272;19.026;2023-03-03T00:35:56;40.81;35.09;64.71;;
76338;Laerm;20358;50.272;19.026;2023-03-03T00:39:21;39.65;34.42;60.80;;
76338;Laerm;20358;50.272;19.026;2023-03-03T00:42:34;38.17;34.93;49.51;;
76338;Laerm;20358;50.272;19.026;2023-03-03T00:45:45;45.86;36.14;71.97;;
76338;Laerm;20358;50.272;19.026;2023-03-03T00:48:51;42.88;35.05;55.70;;
76338;Laerm;20358;50.272;19.026;2023-03-03T00:52:00;39.46;35.07;58.14;;
76338;Laerm;20358;50.272;19.026;2023-03-03T00:55:07;39.01;34.94;49.32;;
76338;Laerm;20358;50.272;19.026;2023-03-03T00:58:14;43.85;36.54;52.57;;
76338;Laerm;20358;50.272;19.026;2023-03-03T01:05:14;42.30;35.33;66.97;;
76338;Laerm;20358;50.272;19.026;2023-03-03T01:08:24;43.39;35.54;60.95;;
76338;Laerm;20358;50.272;19.026;2023-03-03T01:11:30;43.01;35.61;63.85;;
76338;Laerm;20358;50.272;19.026;2023-03-03T01:14:37;45.67;35.28;66.81;;
76338;Laerm;20358;50.272;19.026;2023-03-03T01:17:42;42.65;35.69;67.12;;
76338;Laerm;20358;50.272;19.026;2023-03-03T01:20:49;41.58;35.42;54.44;;
76338;Laerm;20358;50.272;19.026;2023-03-03T01:23:57;42.22;35.86;70.22;;
76338;Laerm;20358;50.272;19.026;2023-03-03T01:27:03;43.44;34.82;65.91;;
76338;Laerm;20358;50.272;19.026;2023-03-03T01:30:10;43.91;35.24;68.93;;
76338;Laerm;20358;50.272;19.026;2023-03-03T01:33:18;41.34;35.56;53.91;;
76338;Laerm;20358;50.272;19.026;2023-03-03T01:36:25;40.14;35.33;51.68;;
76338;Laerm;20358;50.272;19.026;2023-03-03T01:39:35;45.21;35.49;61.25;;
76338;Laerm;20358;50.272;19.026;2023-03-03T01:42:40;43.29;35.47;60.60;;
76338;Laerm;20358;50.272;19.026;2023-03-03T01:46:28;42.54;35.93;60.75;;
76338;Laerm;20358;50.272;19.026;2023-03-03T01:49:44;42.53;35.82;70.56;;
76338;Laerm;20358;50.272;19.026;2023-03-03T01:52:52;45.41;36.17;67.64;;
76338;Laerm;20358;50.272;19.026;2023-03-03T01:56:05;46.05;35.58;63.51;;
76338;Laerm;20358;50.272;19.026;2023-03-03T01:59:20;39.44;35.04;50.54;;
76338;Laerm;20358;50.272;19.026;2023-03-03T02:02:28;40.07;35.18;50.24;;
76338;Laerm;20358;50.272;19.026;2023-03-03T02:05:37;40.24;35.71;54.32;;
76338;Laerm;20358;50.272;19.026;2023-03-03T02:08:53;38.41;35.32;42.27;;
76338;Laerm;20358;50.272;19.026;2023-03-03T02:12:10;40.11;35.48;49.51;;
76338;Laerm;20358;50.272;19.026;2023-03-03T02:15:22;37.38;35.37;41.20;;
76338;Laerm;20358;50.272;19.026;2023-03-03T02:18:29;40.06;35.09;53.17;;
76338;Laerm;20358;50.272;19.026;2023-03-03T02:21:35;43.49;36.11;56.43;;
76338;Laerm;20358;50.272;19.026;2023-03-03T02:24:47;43.69;36.32;59.40;;
76338;Laerm;20358;50.272;19.026;2023-03-03T02:28:01;39.02;35.01;52.17;;
76338;Laerm;20358;50.272;19.026;2023-03-03T02:31:11;44.50;35.23;67.57;;
76338;Laerm;20358;50.272;19.026;2023-03-03T02:34:19;39.85;34.99;56.93;;
76338;Laerm;20358;50.272;19.026;2023-03-03T02:37:27;44.19;35.98;61.18;;
76338;Laerm;20358;50.272;19.026;2023-03-03T02:40:41;42.88;34.79;66.49;;
76338;Laerm;20358;50.272;19.026;2023-03-03T02:44:00;39.68;35.00;52.32;;
76338;Laerm;20358;50.272;19.026;2023-03-03T02:47:08;41.45;34.92;56.81;;
76338;Laerm;20358;50.272;19.026;2023-03-03T02:50:14;43.99;34.95;68.36;;
76338;Laerm;20358;50.272;19.026;2023-03-03T02:53:20;47.06;34.76;72.53;;
76338;Laerm;20358;50.272;19.026;2023-03-03T02:56:27;39.05;34.88;67.93;;
76338;Laerm;20358;50.272;19.026;2023-03-03T02:59:36;42.41;35.03;64.46;;
76338;Laerm;20358;50.272;19.026;2023-03-03T03:02:45;43.23;35.39;57.02;;
76338;Laerm;20358;50.272;19.026;2023-03-03T03:05:52;39.45;35.02;49.95;;
76338;Laerm;20358;50.272;19.026;2023-03-03T03:08:59;44.69;35.07;67.39;;
76338;Laerm;20358;50.272;19.026;2023-03-03T03:12:06;42.28;35.49;57.23;;
76338;Laerm;20358;50.272;19.026;2023-03-03T03:15:14;43.88;35.18;70.66;;
76338;Laerm;20358;50.272;19.026;2023-03-03T03:18:20;42.94;35.94;58.32;;
76338;Laerm;20358;50.272;19.026;2023-03-03T03:21:29;47.79;36.96;68.35;;
76338;Laerm;20358;50.272;19.026;2023-03-03T03:24:35;57.99;36.94;76.91;;
76338;Laerm;20358;50.272;19.026;2023-03-03T03:27:43;45.35;36.10;63.41;;
76338;Laerm;20358;50.272;19.026;2023-03-03T03:30:52;42.43;36.25;65.89;;
76338;Laerm;20358;50.272;19.026;2023-03-03T03:33:58;45.10;36.25;57.96;;
76338;Laerm;20358;50.272;19.026;2023-03-03T03:37:05;45.95;36.65;67.30;;
76338;Laerm;20358;50.272;19.026;2023-03-03T03:40:12;47.52;36.58;68.67;;
76338;Laerm;20358;50.272;19.026;2023-03-03T03:43:19;47.82;38.25;65.75;;
76338;Laerm;20358;50.272;19.026;2023-03-03T03:46:27;48.04;36.38;65.54;;
76338;Laerm;20358;50.272;19.026;2023-03-03T03:49:34;46.62;38.28;70.35;;
76338;Laerm;20358;50.272;19.026;2023-03-03T03:52:40;48.36;36.97;64.72;;
76338;Laerm;20358;50.272;19.026;2023-03-03T03:55:47;45.12;36.03;69.97;;
76338;Laerm;20358;50.272;19.026;2023-03-03T03:58:53;46.94;37.63;65.30;;
76338;Laerm;20358;50.272;19.026;2023-03-03T04:02:02;50.35;37.82;72.46;;
76338;Laerm;20358;50.272;19.026;2023-03-03T04:05:08;47.90;37.24;62.20;;
76338;Laerm;20358;50.272;19.026;2023-03-03T04:08:15;48.00;37.26;65.67;;
76338;Laerm;20358;50.272;19.026;2023-03-03T04:11:21;47.54;38.53;65.59;;
76338;Laerm;20358;50.272;19.026;2023-03-03T04:14:28;48.75;38.28;72.65;;
76338;Laerm;20358;50.272;19.026;2023-03-03T04:17:37;47.90;39.01;69.72;;
76338;Laerm;20358;50.272;19.026;2023-03-03T04:20:43;47.96;38.95;66.27;;
76338;Laerm;20358;50.272;19.026;2023-03-03T04:23:50;46.39;38.15;66.85;;
76338;Laerm;20358;50.272;19.026;2023-03-03T04:26:56;50.32;38.82;67.51;;
76338;Laerm;20358;50.272;19.026;2023-03-03T04:30:05;50.22;38.73;70.28;;
76338;Laerm;20358;50.272;19.026;2023-03-03T04:33:15;50.38;39.80;69.30;;
76338;Laerm;20358;50.272;19.026;2023-03-03T04:36:21;49.73;39.58;65.83;;
76338;Laerm;20358;50.272;19.026;2023-03-03T04:39:28;52.56;38.93;72.45;;
76338;Laerm;20358;50.272;19.026;2023-03-03T04:42:35;51.78;39.63;68.26;;
76338;Laerm;20358;50.272;19.026;2023-03-03T04:45:43;51.43;42.18;68.74;;
76338;Laerm;20358;50.272;19.026;2023-03-03T04:48:53;51.56;40.32;71.45;;
76338;Laerm;20358;50.272;19.026;2023-03-03T04:52:01;53.35;44.59;67.94;;
76338;Laerm;20358;50.272;19.026;2023-03-03T04:55:09;54.86;43.32;72.21;;
76338;Laerm;20358;50.272;19.026;2023-03-03T04:58:16;50.97;40.60;68.24;;
76338;Laerm;20358;50.272;19.026;2023-03-03T05:01:22;51.24;41.82;63.62;;
76338;Laerm;20358;50.272;19.026;2023-03-03T05:04:33;52.30;41.04;69.56;;
76338;Laerm;20358;50.272;19.026;2023-03-03T05:07:39;53.51;42.45;68.98;;
76338;Laerm;20358;50.272;19.026;2023-03-03T05:10:46;52.55;41.61;66.10;;
76338;Laerm;20358;50.272;19.026;2023-03-03T05:13:51;49.07;40.65;61.83;;
76338;Laerm;20358;50.272;19.026;2023-03-03T05:16:58;51.14;40.97;65.57;;
76338;Laerm;20358;50.272;19.026;2023-03-03T05:20:09;53.94;44.90;67.93;;
76338;Laerm;20358;50.272;19.026;2023-03-03T05:23:15;52.38;44.91;66.48;;
76338;Laerm;20358;50.272;19.026;2023-03-03T05:26:21;53.46;42.79;66.15;;
76338;Laerm;20358;50.272;19.026;2023-03-03T05:29:28;54.01;44.74;68.31;;
76338;Laerm;20358;50.272;19.026;2023-03-03T05:32:35;54.08;44.90;67.72;;
76338;Laerm;20358;50.272;19.026;2023-03-03T05:35:44;53.39;45.04;65.06;;
76338;Laerm;20358;50.272;19.026;2023-03-03T05:38:50;52.39;46.30;61.75;;
76338;Laerm;20358;50.272;19.026;2023-03-03T05:41:56;54.24;44.52;68.34;;
76338;Laerm;20358;50.272;19.026;2023-03-03T05:45:02;53.74;46.28;66.65;;
76338;Laerm;20358;50.272;19.026;2023-03-03T05:48:09;52.24;46.04;63.81;;
76338;Laerm;20358;50.272;19.026;2023-03-03T05:51:17;55.58;45.27;76.14;;
76338;Laerm;20358;50.272;19.026;2023-03-03T05:54:24;54.84;45.88;68.01;;
76338;Laerm;20358;50.272;19.026;2023-03-03T05:57:30;53.46;46.14;65.26;;
76338;Laerm;20358;50.272;19.026;2023-03-03T06:00:38;53.24;46.43;63.83;;
76338;Laerm;20358;50.272;19.026;2023-03-03T06:03:43;54.16;44.31;73.56;;
76338;Laerm;20358;50.272;19.026;2023-03-03T06:06:52;52.80;41.97;68.73;;
76338;Laerm;20358;50.272;19.026;2023-03-03T06:09:58;52.18;44.07;63.71;;
76338;Laerm;20358;50.272;19.026;2023-03-03T06:13:06;51.54;44.50;63.67;;
76338;Laerm;20358;50.272;19.026;2023-03-03T06:16:12;53.60;44.24;65.48;;
76338;Laerm;20358;50.272;19.026;2023-03-03T06:19:18;53.09;43.86;68.49;;
76338;Laerm;20358;50.272;19.026;2023-03-03T06:22:27;54.18;45.12;66.09;;
76338;Laerm;20358;50.272;19.026;2023-03-03T06:25:33;53.03;45.91;65.25;;
76338;Laerm;20358;50.272;19.026;2023-03-03T06:28:39;55.21;42.11;69.14;;
76338;Laerm;20358;50.272;19.026;2023-03-03T06:31:45;55.73;44.30;69.81;;
76338;Laerm;20358;50.272;19.026;2023-03-03T06:34:51;52.40;44.29;65.70;;
76338;Laerm;20358;50.272;19.026;2023-03-03T06:38:00;54.50;43.70;70.52;;
76338;Laerm;20358;50.272;19.026;2023-03-03T06:41:05;56.05;48.08;69.71;;
76338;Laerm;20358;50.272;19.026;2023-03-03T06:44:12;53.85;45.56;63.64;;
76338;Laerm;20358;50.272;19.026;2023-03-03T06:47:18;56.00;48.01;71.18;;
76338;Laerm;20358;50.272;19.026;2023-03-03T06:50:25;54.19;44.37;64.66;;
76338;Laerm;20358;50.272;19.026;2023-03-03T06:53:33;53.01;45.36;64.39;;
76338;Laerm;20358;50.272;19.026;2023-03-03T06:56:41;54.59;47.18;66.21;;
76338;Laerm;20358;50.272;19.026;2023-03-03T06:59:52;53.69;45.50;66.74;;
76338;Laerm;20358;50.272;19.026;2023-03-03T07:03:07;54.87;46.81;69.10;;
76338;Laerm;20358;50.272;19.026;2023-03-03T07:06:22;54.12;44.55;69.61;;
76338;Laerm;20358;50.272;19.026;2023-03-03T07:09:33;53.82;42.69;67.13;;
76338;Laerm;20358;50.272;19.026;2023-03-03T07:12:38;52.99;44.54;68.57;;
76338;Laerm;20358;50.272;19.026;2023-03-03T07:15:45;52.89;43.91;75.06;;
76338;Laerm;20358;50.272;19.026;2023-03-03T07:18:53;54.68;43.69;71.66;;
76338;Laerm;20358;50.272;19.026;2023-03-03T07:22:14;56.19;47.59;69.21;;
76338;Laerm;20358;50.272;19.026;2023-03-03T07:25:31;54.08;43.95;74.45;;
76338;Laerm;20358;50.272;19.026;2023-03-03T07:28:41;52.98;43.88;65.01;;
76338;Laerm;20358;50.272;19.026;2023-03-03T07:31:49;62.54;48.04;85.48;;
76338;Laerm;20358;50.272;19.026;2023-03-03T07:34:56;52.27;41.84;64.78;;
76338;Laerm;20358;50.272;19.026;2023-03-03T07:38:03;54.54;42.44;76.00;;
76338;Laerm;20358;50.272;19.026;2023-03-03T07:41:21;53.08;42.83;67.65;;
76338;Laerm;20358;50.272;19.026;2023-03-03T07:44:35;53.10;43.28;66.54;;
76338;Laerm;20358;50.272;19.026;2023-03-03T07:47:43;53.61;43.12;65.41;;
76338;Laerm;20358;50.272;19.026;2023-03-03T07:50:48;53.06;42.15;64.11;;
76338;Laerm;20358;50.272;19.026;2023-03-03T07:54:28;53.85;42.88;70.87;;
76338;Laerm;20358;50.272;19.026;2023-03-03T07:57:37;55.60;45.55;78.36;;
76338;Laerm;20358;50.272;19.026;2023-03-03T08:01:39;55.50;45.18;71.95;;
76338;Laerm;20358;50.272;19.026;2023-03-03T08:04:47;53.11;44.54;71.75;;
76338;Laerm;20358;50.272;19.026;2023-03-03T08:08:13;53.33;45.63;62.98;;
76338;Laerm;20358;50.272;19.026;2023-03-03T08:11:20;53.06;43.40;65.88;;
76338;Laerm;20358;50.272;19.026;2023-03-03T08:14:33;51.81;43.86;66.55;;
76338;Laerm;20358;50.272;19.026;2023-03-03T08:17:42;52.60;43.52;66.74;;
76338;Laerm;20358;50.272;19.026;2023-03-03T08:20:57;52.47;43.92;72.07;;
76338;Laerm;20358;50.272;19.026;2023-03-03T08:24:04;54.64;43.41;70.92;;
76338;Laerm;20358;50.272;19.026;2023-03-03T08:27:11;52.20;40.33;70.18;;
76338;Laerm;20358;50.272;19.026;2023-03-03T08:30:22;54.81;45.11;70.50;;
76338;Laerm;20358;50.272;19.026;2023-03-03T08:33:29;55.31;45.03;71.41;;
76338;Laerm;20358;50.272;19.026;2023-03-03T08:36:35;54.01;44.96;71.42;;
76338;Laerm;20358;50.272;19.026;2023-03-03T08:39:41;53.91;45.79;71.56;;
76338;Laerm;20358;50.272;19.026;2023-03-03T08:42:47;52.47;43.26;66.61;;
76338;Laerm;20358;50.272;19.026;2023-03-03T08:45:59;54.91;47.84;71.53;;
76338;Laerm;20358;50.272;19.026;2023-03-03T08:49:06;52.92;43.39;67.34;;
76338;Laerm;20358;50.272;19.026;2023-03-03T08:52:12;55.57;44.79;69.30;;
76338;Laerm;20358;50.272;19.026;2023-03-03T08:55:18;53.56;44.14;69.38;;
76338;Laerm;20358;50.272;19.026;2023-03-03T08:58:25;54.60;46.54;68.85;;
76338;Laerm;20358;50.272;19.026;2023-03-03T09:01:39;53.61;46.23;70.35;;
76338;Laerm;20358;50.272;19.026;2023-03-03T09:04:46;52.75;43.52;68.00;;
76338;Laerm;20358;50.272;19.026;2023-03-03T09:07:53;54.07;42.89;65.94;;
76338;Laerm;20358;50.272;19.026;2023-03-03T09:11:00;53.55;43.41;69.99;;
76338;Laerm;20358;50.272;19.026;2023-03-03T09:14:11;53.33;43.20;68.93;;
76338;Laerm;20358;50.272;19.026;2023-03-03T09:17:25;52.71;42.29;67.99;;
76338;Laerm;20358;50.272;19.026;2023-03-03T09:20:37;52.65;42.41;67.35;;
76338;Laerm;20358;50.272;19.026;2023-03-03T09:23:54;52.80;43.74;65.09;;
76338;Laerm;20358;50.272;19.026;2023-03-03T09:27:00;52.66;43.63;62.39;;
76338;Laerm;20358;50.272;19.026;2023-03-03T09:30:34;52.98;44.53;68.20;;
76338;Laerm;20358;50.272;19.026;2023-03-03T09:33:46;53.42;42.23;70.72;;
76338;Laerm;20358;50.272;19.026;2023-03-03T09:36:55;54.22;45.83;69.83;;
76338;Laerm;20358;50.272;19.026;2023-03-03T09:40:39;54.32;44.62;72.02;;
76338;Laerm;20358;50.272;19.026;2023-03-03T09:44:36;55.12;44.93;72.96;;
76338;Laerm;20358;50.272;19.026;2023-03-03T09:48:26;55.46;44.65;69.13;;
76338;Laerm;20358;50.272;19.026;2023-03-03T09:52:06;55.21;44.93;67.34;;
76338;Laerm;20358;50.272;19.026;2023-03-03T09:55:39;53.73;45.31;69.86;;
76338;Laerm;20358;50.272;19.026;2023-03-03T09:59:17;54.17;46.27;68.38;;
76338;Laerm;20358;50.272;19.026;2023-03-03T10:02:41;53.84;45.91;66.43;;
76338;Laerm;20358;50.272;19.026;2023-03-03T10:06:03;53.69;44.81;66.98;;
76338;Laerm;20358;50.272;19.026;2023-03-03T10:09:50;52.71;44.34;66.69;;
76338;Laerm;20358;50.272;19.026;2023-03-03T10:13:22;54.30;45.84;67.19;;
76338;Laerm;20358;50.272;19.026;2023-03-03T10:16:54;52.05;43.37;63.30;;
76338;Laerm;20358;50.272;19.026;2023-03-03T10:20:29;53.68;46.20;67.66;;
76338;Laerm;20358;50.272;19.026;2023-03-03T10:23:55;53.55;45.70;69.85;;
76338;Laerm;20358;50.272;19.026;2023-03-03T10:27:37;52.98;44.84;66.00;;
76338;Laerm;20358;50.272;19.026;2023-03-03T10:31:00;52.06;43.08;62.68;;
76338;Laerm;20358;50.272;19.026;2023-03-03T10:34:49;55.43;46.21;69.21;;
76338;Laerm;20358;50.272;19.026;2023-03-03T10:38:34;53.67;45.67;71.02;;
76338;Laerm;20358;50.272;19.026;2023-03-03T10:42:08;54.31;46.40;68.53;;
76338;Laerm;20358;50.272;19.026;2023-03-03T10:45:52;53.45;44.93;71.12;;
76338;Laerm;20358;50.272;19.026;2023-03-03T10:49:29;53.50;45.98;65.63;;
76338;Laerm;20358;50.272;19.026;2023-03-03T10:52:46;53.27;45.45;66.97;;
76338;Laerm;20358;50.272;19.026;2023-03-03T10:56:21;52.68;43.60;71.20;;
76338;Laerm;20358;50.272;19.026;2023-03-03T10:59:49;55.01;45.72;72.41;;
76338;Laerm;20358;50.272;19.026;2023-03-03T11:03:52;54.29;45.25;70.11;;
76338;Laerm;20358;50.272;19.026;2023-03-03T11:07:11;53.49;43.54;66.77;;
76338;Laerm;20358;50.272;19.026;2023-03-03T11:10:48;55.48;44.35;69.84;;
76338;Laerm;20358;50.272;19.026;2023-03-03T11:14:09;53.22;43.63;67.30;;
76338;Laerm;20358;50.272;19.026;2023-03-03T11:17:30;53.38;44.36;71.13;;
76338;Laerm;20358;50.272;19.026;2023-03-03T11:20:55;53.89;44.08;68.74;;
76338;Laerm;20358;50.272;19.026;2023-03-03T11:24:32;55.13;44.52;70.06;;
76338;Laerm;20358;50.272;19.026;2023-03-03T11:28:08;53.81;44.56;69.05;;
76338;Laerm;20358;50.272;19.026;2023-03-03T11:31:30;53.79;45.33;69.19;;
76338;Laerm;20358;50.272;19.026;2023-03-03T11:34:55;54.13;46.13;70.26;;
76338;Laerm;20358;50.272;19.026;2023-03-03T11:38:24;52.88;45.50;64.04;;
76338;Laerm;20358;50.272;19.026;2023-03-03T11:41:39;53.42;45.24;67.77;;
76338;Laerm;20358;50.272;19.026;2023-03-03T11:45:05;52.18;43.89;68.70;;
76338;Laerm;20358;50.272;19.026;2023-03-03T11:48:37;53.24;43.02;68.16;;
76338;Laerm;20358;50.272;19.026;2023-03-03T11:51:59;53.45;47.37;70.15;;
76338;Laerm;20358;50.272;19.026;2023-03-03T11:55:18;52.83;44.99;68.82;;
76338;Laerm;20358;50.272;19.026;2023-03-03T11:58:35;53.07;44.91;68.67;;
76338;Laerm;20358;50.272;19.026;2023-03-03T12:01:53;54.30;44.71;69.32;;
76338;Laerm;20358;50.272;19.026;2023-03-03T12:05:11;52.30;43.96;64.57;;
76338;Laerm;20358;50.272;19.026;2023-03-03T12:08:40;52.27;43.50;66.89;;
76338;Laerm;20358;50.272;19.026;2023-03-03T12:12:04;53.68;44.18;71.59;;
76338;Laerm;20358;50.272;19.026;2023-03-03T12:15:26;54.01;43.00;69.94;;
76338;Laerm;20358;50.272;19.026;2023-03-03T12:19:13;51.83;42.96;66.92;;
76338;Laerm;20358;50.272;19.026;2023-03-03T12:22:31;53.77;44.99;68.88;;
76338;Laerm;20358;50.272;19.026;2023-03-03T12:25:45;54.26;44.33;68.08;;
76338;Laerm;20358;50.272;19.026;2023-03-03T12:29:04;58.69;44.20;75.40;;
76338;Laerm;20358;50.272;19.026;2023-03-03T12:32:37;53.31;43.81;66.19;;
76338;Laerm;20358;50.272;19.026;2023-03-03T12:36:03;55.80;46.14;72.81;;
76338;Laerm;20358;50.272;19.026;2023-03-03T12:39:29;59.69;45.65;83.49;;
76338;Laerm;20358;50.272;19.026;2023-03-03T12:42:59;55.82;46.31;74.36;;
76338;Laerm;20358;50.272;19.026;2023-03-03T12:46:23;54.57;46.92;70.23;;
76338;Laerm;20358;50.272;19.026;2023-03-03T12:49:44;52.24;42.22;67.96;;
76338;Laerm;20358;50.272;19.026;2023-03-03T12:53:27;55.41;47.48;69.09;;
76338;Laerm;20358;50.272;19.026;2023-03-03T12:56:42;53.38;44.55;67.47;;
76338;Laerm;20358;50.272;19.026;2023-03-03T13:00:23;54.42;43.80;73.40;;
76338;Laerm;20358;50.272;19.026;2023-03-03T13:03:43;61.94;47.01;81.34;;
76338;Laerm;20358;50.272;19.026;2023-03-03T13:07:10;53.63;46.53;68.92;;
76338;Laerm;20358;50.272;19.026;2023-03-03T13:10:30;54.64;43.01;68.77;;
76338;Laerm;20358;50.272;19.026;2023-03-03T13:13:52;53.54;45.83;66.33;;
76338;Laerm;20358;50.272;19.026;2023-03-03T13:17:18;53.36;44.24;66.99;;
76338;Laerm;20358;50.272;19.026;2023-03-03T13:20:44;53.49;45.51;65.99;;
76338;Laerm;20358;50.272;19.026;2023-03-03T13:24:04;56.05;44.51;75.17;;
76338;Laerm;20358;50.272;19.026;2023-03-03T13:27:16;53.77;44.77;71.01;;
76338;Laerm;20358;50.272;19.026;2023-03-03T13:30:30;53.30;43.95;64.68;;
76338;Laerm;20358;50.272;19.026;2023-03-03T13:33:50;56.72;47.95;77.15;;
76338;Laerm;20358;50.272;19.026;2023-03-03T13:37:10;56.48;46.35;73.69;;
76338;Laerm;20358;50.272;19.026;2023-03-03T13:40:25;55.99;47.28;69.91;;
76338;Laerm;20358;50.272;19.026;2023-03-03T13:43:43;57.05;47.73;76.62;;
76338;Laerm;20358;50.272;19.026;2023-03-03T13:47:09;55.68;46.61;75.86;;
76338;Laerm;20358;50.272;19.026;2023-03-03T13:50:28;55.16;46.23;71.72;;
76338;Laerm;20358;50.272;19.026;2023-03-03T13:53:54;56.25;46.33;73.03;;
76338;Laerm;20358;50.272;19.026;2023-03-03T13:57:32;53.57;45.77;71.48;;
76338;Laerm;20358;50.272;19.026;2023-03-03T14:00:57;56.19;45.94;71.49;;
76338;Laerm;20358;50.272;19.026;2023-03-03T14:04:17;56.79;47.26;77.87;;
76338;Laerm;20358;50.272;19.026;2023-03-03T14:07:37;56.31;43.78;72.51;;
76338;Laerm;20358;50.272;19.026;2023-03-03T14:11:03;57.97;48.47;75.75;;
76338;Laerm;20358;50.272;19.026;2023-03-03T14:14:32;56.05;44.40;74.54;;
76338;Laerm;20358;50.272;19.026;2023-03-03T14:21:29;54.34;44.11;68.16;;
76338;Laerm;20358;50.272;19.026;2023-03-03T14:24:58;55.21;46.96;76.42;;
76338;Laerm;20358;50.272;19.026;2023-03-03T14:28:12;55.06;42.96;75.69;;
76338;Laerm;20358;50.272;19.026;2023-03-03T14:31:23;54.44;43.37;68.93;;
76338;Laerm;20358;50.272;19.026;2023-03-03T14:34:40;53.36;41.49;68.61;;
76338;Laerm;20358;50.272;19.026;2023-03-03T14:37:46;54.86;41.67;73.23;;
76338;Laerm;20358;50.272;19.026;2023-03-03T14:41:13;55.86;47.16;72.06;;
76338;Laerm;20358;50.272;19.026;2023-03-03T14:44:35;55.85;47.87;73.41;;
76338;Laerm;20358;50.272;19.026;2023-03-03T14:47:45;56.75;46.78;73.54;;
76338;Laerm;20358;50.272;19.026;2023-03-03T14:50:56;55.46;43.02;71.54;;
76338;Laerm;20358;50.272;19.026;2023-03-03T14:54:18;55.44;46.89;71.24;;
76338;Laerm;20358;50.272;19.026;2023-03-03T14:57:39;54.09;45.33;69.18;;
76338;Laerm;20358;50.272;19.026;2023-03-03T15:01:14;54.86;45.61;73.83;;
76338;Laerm;20358;50.272;19.026;2023-03-03T15:04:27;56.00;44.86;74.19;;
76338;Laerm;20358;50.272;19.026;2023-03-03T15:07:37;56.22;47.89;74.84;;
76338;Laerm;20358;50.272;19.026;2023-03-03T15:10:44;56.40;49.32;72.71;;
76338;Laerm;20358;50.272;19.026;2023-03-03T15:13:51;54.72;43.91;76.38;;
76338;Laerm;20358;50.272;19.026;2023-03-03T15:17:24;54.89;46.42;72.03;;
76338;Laerm;20358;50.272;19.026;2023-03-03T15:20:40;55.13;45.51;71.03;;
76338;Laerm;20358;50.272;19.026;2023-03-03T15:24:00;55.05;44.72;71.11;;
76338;Laerm;20358;50.272;19.026;2023-03-03T15:27:20;53.47;45.53;67.54;;
76338;Laerm;20358;50.272;19.026;2023-03-03T15:30:35;56.17;43.80;74.76;;
76338;Laerm;20358;50.272;19.026;2023-03-03T15:34:01;54.72;43.76;72.38;;
76338;Laerm;20358;50.272;19.026;2023-03-03T15:37:31;55.47;44.45;73.19;;
76338;Laerm;20358;50.272;19.026;2023-03-03T15:40:48;59.13;48.20;77.41;;
76338;Laerm;20358;50.272;19.026;2023-03-03T15:44:12;54.34;43.75;70.65;;
76338;Laerm;20358;50.272;19.026;2023-03-03T15:47:52;55.08;42.55;73.11;;
76338;Laerm;20358;50.272;19.026;2023-03-03T15:51:25;54.19;45.98;70.47;;
76338;Laerm;20358;50.272;19.026;2023-03-03T15:54:46;54.99;44.28;74.48;;
76338;Laerm;20358;50.272;19.026;2023-03-03T15:58:21;54.84;45.82;70.27;;
76338;Laerm;20358;50.272;19.026;2023-03-03T16:01:34;54.75;44.59;71.77;;
76338;Laerm;20358;50.272;19.026;2023-03-03T16:05:00;53.48;44.99;69.22;;
76338;Laerm;20358;50.272;19.026;2023-03-03T16:08:20;54.84;46.03;71.60;;
76338;Laerm;20358;50.272;19.026;2023-03-03T16:11:39;54.84;46.88;71.65;;
76338;Laerm;20358;50.272;19.026;2023-03-03T16:15:17;53.05;42.53;70.69;;
76338;Laerm;20358;50.272;19.026;2023-03-03T16:18:43;62.37;44.70;83.49;;
76338;Laerm;20358;50.272;19.026;2023-03-03T16:22:23;54.51;43.26;75.22;;
76338;Laerm;20358;50.272;19.026;2023-03-03T16:25:56;54.23;44.77;71.99;;
76338;Laerm;20358;50.272;19.026;2023-03-03T16:29:33;53.24;42.98;68.05;;
76338;Laerm;20358;50.272;19.026;2023-03-03T16:32:50;54.64;42.63;72.42;;
76338;Laerm;20358;50.272;19.026;2023-03-03T16:36:07;53.13;43.51;70.58;;
76338;Laerm;20358;50.272;19.026;2023-03-03T16:39:32;54.83;45.20;73.12;;
76338;Laerm;20358;50.272;19.026;2023-03-03T16:42:54;54.18;45.68;73.52;;
76338;Laerm;20358;50.272;19.026;2023-03-03T16:46:19;53.34;40.25;68.74;;
76338;Laerm;20358;50.272;19.026;2023-03-03T16:49:36;51.78;39.80;72.60;;
76338;Laerm;20358;50.272;19.026;2023-03-03T16:53:00;53.51;42.62;69.10;;
76338;Laerm;20358;50.272;19.026;2023-03-03T16:56:18;53.36;41.03;71.82;;
76338;Laerm;20358;50.272;19.026;2023-03-03T16:59:51;54.21;39.81;71.55;;
76338;Laerm;20358;50.272;19.026;2023-03-03T17:03:37;53.24;40.91;71.02;;
76338;Laerm;20358;50.272;19.026;2023-03-03T17:06:54;52.70;38.98;68.79;;
76338;Laerm;20358;50.272;19.026;2023-03-03T17:10:25;53.69;41.07;75.52;;
76338;Laerm;20358;50.272;19.026;2023-03-03T17:14:04;53.10;40.70;75.11;;
76338;Laerm;20358;50.272;19.026;2023-03-03T17:17:38;55.26;43.68;75.58;;
76338;Laerm;20358;50.272;19.026;2023-03-03T17:20:50;54.67;46.35;70.31;;
76338;Laerm;20358;50.272;19.026;2023-03-03T17:24:13;54.90;43.86;73.35;;
76338;Laerm;20358;50.272;19.026;2023-03-03T17:27:34;52.40;40.66;69.40;;
76338;Laerm;20358;50.272;19.026;2023-03-03T17:30:55;52.66;42.96;69.98;;
76338;Laerm;20358;50.272;19.026;2023-03-03T17:34:42;53.17;41.07;68.87;;
76338;Laerm;20358;50.272;19.026;2023-03-03T17:38:05;52.88;41.12;70.66;;
76338;Laerm;20358;50.272;19.026;2023-03-03T17:41:27;52.33;42.45;67.60;;
76338;Laerm;20358;50.272;19.026;2023-03-03T17:44:49;52.50;39.80;70.59;;
76338;Laerm;20358;50.272;19.026;2023-03-03T17:48:31;53.15;42.47;71.61;;
76338;Laerm;20358;50.272;19.026;2023-03-03T17:52:12;52.48;39.84;72.92;;
76338;Laerm;20358;50.272;19.026;2023-03-03T17:55:45;52.01;42.66;71.16;;
76338;Laerm;20358;50.272;19.026;2023-03-03T17:59:22;51.27;41.69;67.88;;
76338;Laerm;20358;50.272;19.026;2023-03-03T18:07:17;51.27;41.48;68.60;;
76338;Laerm;20358;50.272;19.026;2023-03-03T18:11:11;52.12;39.61;70.85;;
76338;Laerm;20358;50.272;19.026;2023-03-03T18:18:43;52.44;40.12;74.92;;
76338;Laerm;20358;50.272;19.026;2023-03-03T18:22:06;52.43;40.70;71.60;;